Time;durP1;ratioP1;P1;durP2;ratioP2;P2;SDS_P1;SDS_P2;PMS_P1;PMS_P2;Temp;Humidity;BMP_temperature;BMP_pressure;BME280_temperature;BME280_humidity;BME280_pressure;Samples;Min_cycle;Max_cycle;Signal;HPM_P1;HPM_P2
2022/07/17 00:00:55;;;;;;;4.53;1.27;;;;;;;13.59;82.01;102708.72;5046510;28;20057;-69
2022/07/17 00:03:20;;;;;;;2.70;1.00;;;;;;;13.53;82.85;102696.78;5043313;28;20510;-69
2022/07/17 00:05:46;;;;;;;1.30;0.60;;;;;;;13.46;83.04;102708.88;5046080;28;20026;-69
2022/07/17 00:08:11;;;;;;;2.30;0.93;;;;;;;13.41;83.09;102708.38;5039727;28;20033;-69
2022/07/17 00:10:39;;;;;;;0.98;0.75;;;;;;;13.32;83.25;102704.66;5047054;28;20052;-69
2022/07/17 00:13:06;;;;;;;0.70;0.43;;;;;;;13.15;85.02;102706.00;5045798;28;20265;-69
2022/07/17 00:15:32;;;;;;;3.47;0.75;;;;;;;13.05;85.06;102689.13;5039394;28;20087;-69
2022/07/17 00:17:58;;;;;;;2.10;0.68;;;;;;;13.10;85.12;102699.34;5042514;28;20033;-69
2022/07/17 00:20:26;;;;;;;1.13;0.73;;;;;;;12.94;85.40;102683.81;5042825;28;20544;-69
2022/07/17 00:22:52;;;;;;;0.52;0.45;;;;;;;12.94;86.84;102699.72;5037629;28;20036;-69
2022/07/17 00:25:18;;;;;;;4.63;0.73;;;;;;;12.87;86.16;102693.19;5045209;28;20028;-69
2022/07/17 00:27:43;;;;;;;2.70;0.60;;;;;;;12.86;86.91;102707.41;5045966;28;20044;-69
2022/07/17 00:30:09;;;;;;;1.92;0.63;;;;;;;12.81;86.90;102697.19;5039545;28;20025;-69
2022/07/17 00:32:35;;;;;;;1.25;0.50;;;;;;;12.67;87.61;102687.66;5049634;28;20366;-69
2022/07/17 00:35:00;;;;;;;1.45;0.55;;;;;;;12.73;87.52;102692.47;5042133;28;20120;-69
2022/07/17 00:37:26;;;;;;;0.70;0.47;;;;;;;12.71;87.21;102699.69;5039742;28;20025;-69
2022/07/17 00:39:51;;;;;;;0.60;0.50;;;;;;;12.65;87.93;102700.19;5038093;28;20458;-69
2022/07/17 00:42:17;;;;;;;0.98;0.73;;;;;;;12.48;87.96;102679.44;5041713;28;20037;-69
2022/07/17 00:44:43;;;;;;;0.98;0.75;;;;;;;12.57;89.22;102696.44;5041357;28;20525;-69
2022/07/17 00:47:20;;;;;;;2.95;0.70;;;;;;;12.50;88.73;102688.13;5033783;28;20021;-69
2022/07/17 00:49:47;;;;;;;1.20;0.73;;;;;;;12.45;89.29;102698.19;5046745;28;20477;-69
2022/07/17 00:52:14;;;;;;;0.88;0.57;;;;;;;12.26;89.60;102675.78;5046801;28;20047;-69
2022/07/17 00:54:42;;;;;;;1.70;0.82;;;;;;;12.29;89.39;102691.44;5036757;28;20037;-69
2022/07/17 00:57:10;;;;;;;1.25;0.93;;;;;;;12.16;90.01;102680.06;5036644;28;20519;-69
2022/07/17 00:59:36;;;;;;;1.85;0.88;;;;;;;12.06;90.91;102687.00;5036649;28;20061;-69
2022/07/17 01:02:06;;;;;;;3.25;0.80;;;;;;;11.99;92.40;102686.63;5041077;28;20441;-69
2022/07/17 01:04:34;;;;;;;1.13;0.80;;;;;;;11.94;91.54;102689.63;5039230;28;20504;-69
2022/07/17 01:07:01;;;;;;;0.80;0.70;;;;;;;11.97;91.34;102687.72;5035000;28;20568;-69
2022/07/17 01:09:28;;;;;;;1.38;0.98;;;;;;;11.98;91.07;102694.72;5036903;28;20017;-69
2022/07/17 01:11:54;;;;;;;1.38;0.80;;;;;;;11.97;92.29;102685.06;5042392;28;20044;-69
2022/07/17 01:14:21;;;;;;;2.67;0.80;;;;;;;11.93;91.83;102682.66;5041414;28;20041;-68
2022/07/17 01:16:47;;;;;;;0.88;0.60;;;;;;;11.91;92.65;102681.06;5041368;28;20484;-68
2022/07/17 01:19:12;;;;;;;4.00;0.80;;;;;;;11.81;92.50;102678.22;5036022;28;20040;-68
2022/07/17 01:21:43;;;;;;;2.58;1.05;;;;;;;11.68;93.51;102678.28;5044095;28;20036;-68
2022/07/17 01:24:08;;;;;;;1.13;0.43;;;;;;;11.76;93.57;102680.38;5046553;28;20221;-69
2022/07/17 01:26:34;;;;;;;0.90;0.40;;;;;;;11.76;92.58;102675.09;5039466;28;20036;-68
2022/07/17 01:28:59;;;;;;;1.63;0.63;;;;;;;11.80;91.60;102687.13;5046093;28;20385;-68
2022/07/17 01:31:24;;;;;;;1.40;1.25;;;;;;;11.74;93.08;102682.28;5038197;28;20039;-69
2022/07/17 01:33:50;;;;;;;0.60;0.50;;;;;;;11.81;91.52;102691.47;5037441;28;20366;-69
2022/07/17 01:36:15;;;;;;;2.88;0.73;;;;;;;11.80;91.78;102691.56;5047130;28;20040;-69
2022/07/17 01:38:41;;;;;;;0.70;0.55;;;;;;;11.82;91.22;102692.28;5042956;28;20031;-68
2022/07/17 01:41:06;;;;;;;2.88;0.73;;;;;;;11.80;91.87;102691.56;5039880;28;20493;-69
2022/07/17 01:43:32;;;;;;;1.70;0.75;;;;;;;11.84;91.21;102700.97;5037593;28;20034;-69
2022/07/17 01:45:57;;;;;;;0.60;0.40;;;;;;;11.67;91.48;102686.31;5040286;28;20124;-69
2022/07/17 01:48:24;;;;;;;0.60;0.30;;;;;;;11.78;91.05;102707.56;5029559;28;20059;-69
2022/07/17 01:50:50;;;;;;;1.60;0.50;;;;;;;11.67;92.05;102710.13;5041573;28;20029;-69
2022/07/17 01:53:15;;;;;;;2.08;1.17;;;;;;;11.68;92.04;102709.19;5029788;28;20029;-69
2022/07/17 01:55:40;;;;;;;0.95;0.65;;;;;;;11.62;91.93;102710.47;5039398;28;20449;-69
2022/07/17 01:58:06;;;;;;;1.98;1.02;;;;;;;11.53;91.89;102705.84;5033103;28;20061;-69
2022/07/17 02:00:31;;;;;;;2.25;0.80;;;;;;;11.50;92.80;102714.84;5038242;28;20123;-69
2022/07/17 02:02:56;;;;;;;4.70;0.93;;;;;;;11.43;93.52;102700.38;5036356;28;20052;-69
2022/07/17 02:05:22;;;;;;;2.00;1.00;;;;;;;11.48;93.29;102713.28;5034677;28;20037;-69
2022/07/17 02:07:47;;;;;;;1.55;0.65;;;;;;;11.51;92.16;102718.31;5036026;28;21284;-69
2022/07/17 02:10:14;;;;;;;1.73;1.00;;;;;;;11.33;93.16;102699.34;5040253;28;20044;-69
2022/07/17 02:12:41;;;;;;;1.02;0.60;;;;;;;11.46;93.11;102716.03;5036604;28;20025;-69
2022/07/17 02:15:06;;;;;;;2.17;1.77;;;;;;;11.49;92.56;102721.06;5033757;28;20029;-69
2022/07/17 02:17:32;;;;;;;2.50;0.85;;;;;;;11.52;92.00;102731.44;5036788;28;20041;-69
2022/07/17 02:19:57;;;;;;;1.42;0.70;;;;;;;11.55;92.04;102729.53;5044504;28;20060;-69
2022/07/17 02:22:22;;;;;;;1.83;0.90;;;;;;;11.56;91.29;102733.88;5038772;28;20493;-69
2022/07/17 02:24:48;;;;;;;0.63;0.40;;;;;;;11.59;91.68;102725.72;5041552;28;20028;-68
2022/07/17 02:27:13;;;;;;;1.63;1.10;;;;;;;11.51;91.45;102716.53;5039507;28;20037;-69
2022/07/17 02:29:38;;;;;;;0.85;0.80;;;;;;;11.48;92.58;102719.41;5018606;28;20036;-69
2022/07/17 02:32:05;;;;;;;1.60;1.10;;;;;;;11.41;93.75;102704.06;5043872;28;20440;-69
2022/07/17 02:34:31;;;;;;;6.55;0.98;;;;;;;11.38;94.66;102710.44;5032723;28;20025;-69
2022/07/17 02:36:56;;;;;;;4.13;1.08;;;;;;;11.32;94.95;102692.34;5037343;28;20028;-69
2022/07/17 02:39:22;;;;;;;0.63;0.60;;;;;;;11.21;95.95;102689.63;5039700;28;20431;-69
2022/07/17 02:41:47;;;;;;;0.98;0.73;;;;;;;11.05;96.21;102669.59;5032355;28;20025;-69
2022/07/17 02:44:12;;;;;;;1.08;0.93;;;;;;;10.84;97.37;102666.69;5042261;28;20112;-69
2022/07/17 02:46:38;;;;;;;3.35;1.13;;;;;;;10.77;98.27;102675.13;5040165;28;20646;-69
2022/07/17 02:49:03;;;;;;;2.00;0.80;;;;;;;10.79;98.40;102686.44;5041176;28;20108;-69
2022/07/17 02:51:28;;;;;;;1.92;1.10;;;;;;;10.88;99.49;102693.69;5041669;28;20393;-69
2022/07/17 02:53:54;;;;;;;0.77;0.63;;;;;;;10.90;97.31;102692.63;5032521;28;20025;-69
2022/07/17 02:56:19;;;;;;;3.72;1.10;;;;;;;11.03;95.80;102712.94;5037248;28;20029;-69
2022/07/17 02:58:44;;;;;;;2.55;1.10;;;;;;;11.10;95.32;102716.81;5038067;28;20081;-69
2022/07/17 03:01:11;;;;;;;3.22;0.95;;;;;;;11.17;93.90;102709.31;5037836;28;20072;-69
2022/07/17 03:03:36;;;;;;;1.65;0.90;;;;;;;11.06;94.21;102697.72;5040052;28;20119;-69
2022/07/17 03:06:02;;;;;;;0.95;0.80;;;;;;;11.02;95.55;102711.25;5031168;28;20025;-69
2022/07/17 03:08:27;;;;;;;1.20;0.77;;;;;;;11.02;95.96;102716.53;5036557;28;20036;-69
2022/07/17 03:10:52;;;;;;;1.10;0.70;;;;;;;11.02;94.93;102716.53;5035792;28;20084;-69
2022/07/17 03:13:18;;;;;;;0.88;0.60;;;;;;;10.98;96.08;102725.63;5039218;28;20044;-68
2022/07/17 03:15:43;;;;;;;1.20;0.70;;;;;;;11.03;96.69;102734.91;5017655;28;20034;-69
2022/07/17 03:18:09;;;;;;;0.98;0.52;;;;;;;11.12;95.28;102739.53;5039965;28;20060;-69
2022/07/17 03:20:34;;;;;;;0.45;0.30;;;;;;;11.16;94.27;102741.97;5032538;28;20033;-69
2022/07/17 03:22:59;;;;;;;1.85;0.80;;;;;;;11.08;95.98;102731.94;5037878;28;20756;-69
2022/07/17 03:25:25;;;;;;;5.18;0.90;;;;;;;11.08;95.81;102735.44;5036530;28;20041;-68
2022/07/17 03:27:50;;;;;;;1.30;0.90;;;;;;;11.11;95.55;102727.28;5037185;28;20026;-69
2022/07/17 03:30:15;;;;;;;1.35;1.20;;;;;;;11.13;97.08;102721.91;5041968;28;20025;-69
2022/07/17 03:32:41;;;;;;;1.67;0.65;;;;;;;11.24;95.90;102723.81;5023036;28;20116;-69
2022/07/17 03:35:07;;;;;;;1.13;0.75;;;;;;;11.33;96.07;102723.16;5042541;28;20053;-69
2022/07/17 03:37:33;;;;;;;4.75;1.10;;;;;;;11.16;95.10;102681.19;5043675;28;20040;-69
2022/07/17 03:39:58;;;;;;;0.93;0.60;;;;;;;11.51;95.58;102724.47;5040541;28;20037;-69
2022/07/17 03:42:24;;;;;;;3.22;1.60;;;;;;;11.53;95.25;102721.72;5039840;28;20421;-69
2022/07/17 03:44:49;;;;;;;0.85;0.47;;;;;;;11.61;93.84;102731.75;5041843;28;20036;-69
2022/07/17 03:47:14;;;;;;;1.92;0.75;;;;;;;11.68;93.46;102727.69;5042550;28;20685;-69
2022/07/17 03:49:40;;;;;;;1.00;0.75;;;;;;;11.76;91.78;102722.69;5037321;28;20478;-69
2022/07/17 03:52:05;;;;;;;1.00;0.55;;;;;;;11.82;92.42;102718.75;5042401;28;20042;-69
2022/07/17 03:54:31;;;;;;;0.82;0.75;;;;;;;11.85;92.59;102710.59;5043971;28;20381;-69
2022/07/17 03:56:57;;;;;;;1.15;0.80;;;;;;;11.85;93.12;102705.31;5043136;28;20025;-69
2022/07/17 03:59:22;;;;;;;2.20;1.52;;;;;;;11.87;94.24;102713.97;5036814;28;20132;-69
2022/07/17 04:01:47;;;;;;;3.40;0.93;;;;;;;11.80;93.81;102708.31;5037558;28;20600;-69
2022/07/17 04:04:13;;;;;;;1.52;0.80;;;;;;;11.68;94.47;102701.25;5024020;28;20028;-69
2022/07/17 04:06:38;;;;;;;2.05;1.27;;;;;;;11.67;96.06;102707.47;5035159;28;20048;-69
2022/07/17 04:09:04;;;;;;;2.63;0.95;;;;;;;11.67;96.68;102708.34;5042147;28;20154;-69
2022/07/17 04:11:30;;;;;;;1.65;1.05;;;;;;;11.73;96.64;102718.44;5037159;28;20033;-69
2022/07/17 04:13:55;;;;;;;1.02;0.93;;;;;;;11.79;96.19;102711.88;5038841;28;20033;-69
2022/07/17 04:16:21;;;;;;;1.58;0.80;;;;;;;11.81;95.94;102709.97;5037442;28;20068;-69
2022/07/17 04:18:46;;;;;;;1.00;0.80;;;;;;;11.87;96.15;102721.91;5047780;28;20427;-69
2022/07/17 04:21:13;;;;;;;1.25;0.70;;;;;;;11.92;94.92;102727.75;5039139;28;20021;-69
2022/07/17 04:23:38;;;;;;;1.65;0.98;;;;;;;12.07;94.85;102733.72;5041701;28;20029;-68
2022/07/17 04:26:06;;;;;;;1.33;0.93;;;;;;;12.13;94.37;102735.91;5039777;28;20207;-68
2022/07/17 04:28:31;;;;;;;0.95;0.63;;;;;;;12.22;94.71;102729.09;5040099;28;20029;-68
2022/07/17 04:30:57;;;;;;;6.50;1.23;;;;;;;12.25;93.92;102723.53;5038361;28;20036;-69
2022/07/17 04:33:22;;;;;;;2.25;1.50;;;;;;;12.11;95.22;102728.06;5041483;28;20053;-69
2022/07/17 04:35:47;;;;;;;3.50;1.05;;;;;;;11.97;95.52;102717.66;5036695;28;20026;-69
2022/07/17 04:38:13;;;;;;;2.28;1.00;;;;;;;12.04;95.95;102715.38;5017335;28;20093;-69
2022/07/17 04:40:39;;;;;;;2.28;1.50;;;;;;;11.87;95.89;102714.81;5034922;28;20397;-69
2022/07/17 04:43:05;;;;;;;5.20;1.45;;;;;;;11.87;96.67;102720.13;5044186;28;20499;-69
2022/07/17 04:45:31;;;;;;;2.10;0.98;;;;;;;11.92;97.23;102709.22;5036120;28;20040;-69
2022/07/17 04:47:57;;;;;;;2.58;1.25;;;;;;;11.97;97.66;102714.16;5035592;28;20076;-69
2022/07/17 04:50:23;;;;;;;5.63;2.05;;;;;;;11.76;97.84;102690.97;5037275;28;20504;-69
2022/07/17 04:52:48;;;;;;;2.55;1.60;;;;;;;11.86;97.31;102707.81;5034578;28;20033;-69
2022/07/17 04:55:14;;;;;;;1.80;1.00;;;;;;;11.59;98.50;102688.69;5041442;28;20485;-69
2022/07/17 04:57:39;;;;;;;3.92;1.13;;;;;;;11.64;98.86;102705.91;5034559;28;20029;-69
2022/07/17 05:00:07;;;;;;;4.55;1.33;;;;;;;11.66;98.92;102703.16;5035101;28;20048;-69
2022/07/17 05:02:32;;;;;;;2.95;1.27;;;;;;;11.72;98.94;102706.19;5038901;28;20033;-69
2022/07/17 05:04:58;;;;;;;6.05;1.85;;;;;;;11.77;98.45;102705.84;5039971;28;20021;-69
2022/07/17 05:07:23;;;;;;;1.83;1.13;;;;;;;12.00;97.26;102720.09;5038159;28;20033;-69
2022/07/17 05:09:49;;;;;;;2.15;1.00;;;;;;;12.12;97.79;102732.38;5040903;28;20116;-69
2022/07/17 05:12:15;;;;;;;1.25;0.85;;;;;;;12.22;96.78;102727.28;5040468;28;20029;-69
2022/07/17 05:14:40;;;;;;;2.47;1.05;;;;;;;12.41;95.80;102731.16;5019774;28;20037;-69
2022/07/17 05:17:05;;;;;;;0.90;0.60;;;;;;;12.49;94.95;102728.78;5036462;28;20531;-69
2022/07/17 05:19:31;;;;;;;1.95;1.48;;;;;;;12.55;95.45;102734.47;5041952;28;20040;-69
2022/07/17 05:21:56;;;;;;;1.90;1.02;;;;;;;12.59;94.27;102737.75;5039893;28;20029;-69
2022/07/17 05:24:22;;;;;;;3.60;1.45;;;;;;;12.74;93.89;102744.50;5039343;28;20063;-69
2022/07/17 05:26:47;;;;;;;1.17;0.63;;;;;;;12.69;94.02;102749.28;5034838;28;20532;-69
2022/07/17 05:29:12;;;;;;;0.88;0.60;;;;;;;12.73;94.02;102740.16;5039159;28;20020;-69
2022/07/17 05:31:38;;;;;;;5.47;1.15;;;;;;;12.85;94.50;102753.44;5036168;28;20037;-69
2022/07/17 05:34:03;;;;;;;1.90;0.80;;;;;;;13.05;93.46;102767.81;5036213;28;20021;-69
2022/07/17 05:36:28;;;;;;;1.95;0.90;;;;;;;13.24;93.05;102764.53;5036836;28;20120;-69
2022/07/17 05:38:54;;;;;;;6.53;1.20;;;;;;;13.30;92.84;102769.38;5036792;28;20360;-69
2022/07/17 05:41:19;;;;;;;2.67;1.50;;;;;;;13.53;92.90;102768.41;5036248;28;20044;-69
2022/07/17 05:43:45;;;;;;;1.88;0.90;;;;;;;14.02;92.22;102776.03;5037324;28;20024;-69
2022/07/17 05:46:10;;;;;;;1.63;1.38;;;;;;;14.54;90.12;102777.03;5037278;28;20028;-69
2022/07/17 05:48:36;;;;;;;1.55;0.85;;;;;;;14.80;86.18;102773.03;5037379;28;20017;-69
2022/07/17 05:51:01;;;;;;;1.00;0.52;;;;;;;14.91;84.73;102771.28;5040380;28;20029;-69
2022/07/17 05:53:26;;;;;;;1.55;1.05;;;;;;;14.96;84.82;102777.91;5039919;28;20025;-69
2022/07/17 05:55:52;;;;;;;0.80;0.60;;;;;;;15.10;84.09;102759.91;5041523;28;20036;-69
2022/07/17 05:58:18;;;;;;;1.67;0.60;;;;;;;15.38;82.64;102783.13;5041814;28;20037;-69
2022/07/17 06:00:44;;;;;;;1.25;0.75;;;;;;;15.48;83.70;102784.97;5041048;28;20147;-69
2022/07/17 06:03:09;;;;;;;4.43;0.52;;;;;;;15.62;83.38;102788.09;5038569;28;20037;-69
2022/07/17 06:05:35;;;;;;;1.42;0.77;;;;;;;15.52;82.29;102778.41;5038170;28;20029;-69
2022/07/17 06:08:00;;;;;;;0.70;0.47;;;;;;;15.48;82.57;102793.78;5036530;28;20021;-69
2022/07/17 06:10:27;;;;;;;3.53;0.80;;;;;;;15.44;82.31;102792.38;5039416;28;20024;-69
2022/07/17 06:12:52;;;;;;;5.03;1.40;;;;;;;15.45;82.92;102793.22;5036623;28;20029;-69
2022/07/17 06:15:22;;;;;;;1.08;0.50;;;;;;;15.49;83.90;102784.84;5038041;28;20087;-69
2022/07/17 06:17:47;;;;;;;0.88;0.52;;;;;;;15.61;84.29;102791.75;5036398;28;20091;-69
2022/07/17 06:20:13;;;;;;;1.55;0.65;;;;;;;15.68;84.86;102792.03;5037742;28;20584;-70
2022/07/17 06:22:39;;;;;;;2.45;0.40;;;;;;;15.78;84.19;102787.59;5037842;28;20029;-69
2022/07/17 06:25:05;;;;;;;3.15;0.52;;;;;;;15.91;84.39;102783.84;5038416;28;20035;-68
2022/07/17 06:27:30;;;;;;;1.52;0.50;;;;;;;15.85;84.71;102782.56;5034332;28;20029;-68
2022/07/17 06:29:56;;;;;;;2.53;0.90;;;;;;;15.97;84.95;102783.31;5033916;28;20017;-69
2022/07/17 06:32:21;;;;;;;3.38;1.00;;;;;;;15.86;85.86;102770.94;5037611;28;20520;-69
2022/07/17 06:34:47;;;;;;;0.82;0.45;;;;;;;15.75;86.29;102771.06;5037168;28;20079;-69
2022/07/17 06:37:12;;;;;;;2.78;0.52;;;;;;;15.32;86.49;102767.69;5036236;28;20392;-70
2022/07/17 06:39:37;;;;;;;1.00;0.70;;;;;;;15.27;86.96;102769.09;5038005;28;20072;-69
2022/07/17 06:42:03;;;;;;;2.28;1.02;;;;;;;15.53;85.76;102770.28;5036902;28;20021;-69
2022/07/17 06:44:28;;;;;;;2.17;1.02;;;;;;;15.77;84.47;102772.63;5035805;28;20043;-69
2022/07/17 06:46:54;;;;;;;1.10;0.50;;;;;;;15.82;84.07;102774.88;5037975;28;20043;-69
2022/07/17 06:49:19;;;;;;;0.30;0.20;;;;;;;15.69;83.83;102769.75;5038520;28;20025;-69
2022/07/17 06:51:45;;;;;;;4.20;0.73;;;;;;;15.84;84.90;102779.06;5037455;28;20103;-69
2022/07/17 06:54:15;;;;;;;2.10;0.47;;;;;;;15.99;83.92;102776.84;5035191;28;20648;-69
2022/07/17 06:56:41;;;;;;;3.13;0.47;;;;;;;16.20;83.67;102779.41;5036552;28;20025;-69
2022/07/17 06:59:07;;;;;;;0.82;0.60;;;;;;;16.42;83.28;102793.41;5038890;28;20056;-69
2022/07/17 07:01:36;;;;;;;0.57;0.35;;;;;;;16.65;81.31;102800.09;5038248;28;20029;-69
2022/07/17 07:04:03;;;;;;;3.97;1.13;;;;;;;16.75;81.25;102805.44;5038956;28;20021;-69
2022/07/17 07:06:29;;;;;;;1.40;0.77;;;;;;;16.69;80.14;102783.84;5040434;28;20131;-69
2022/07/17 07:08:55;;;;;;;1.40;0.47;;;;;;;16.92;80.91;102803.91;5039074;28;20017;-69
2022/07/17 07:11:20;;;;;;;3.28;0.60;;;;;;;17.12;80.47;102799.34;5040750;28;20094;-69
2022/07/17 07:13:46;;;;;;;1.25;0.90;;;;;;;17.32;80.25;102809.94;5040617;28;20044;-69
2022/07/17 07:16:11;;;;;;;0.50;0.30;;;;;;;17.61;78.61;102813.31;5039755;28;20029;-69
2022/07/17 07:18:37;;;;;;;1.08;0.50;;;;;;;17.84;79.45;102811.13;5042065;28;20036;-69
2022/07/17 07:21:02;;;;;;;3.72;0.75;;;;;;;17.97;77.19;102808.09;5040160;28;20116;-69
2022/07/17 07:23:28;;;;;;;2.45;0.60;;;;;;;18.15;76.23;102815.28;5040552;28;20045;-69
2022/07/17 07:25:53;;;;;;;3.45;1.40;;;;;;;18.34;76.22;102820.47;5040432;28;20057;-68
2022/07/17 07:28:19;;;;;;;2.03;0.32;;;;;;;18.54;74.50;102821.13;5040996;28;20044;-68
2022/07/17 07:30:44;;;;;;;3.10;0.60;;;;;;;18.99;72.71;102830.88;5044195;28;20044;-68
2022/07/17 07:33:10;;;;;;;0.95;0.50;;;;;;;19.36;72.15;102840.44;5040760;28;20497;-68
2022/07/17 07:35:35;;;;;;;0.80;0.32;;;;;;;19.59;70.60;102835.34;5042698;28;20084;-69
2022/07/17 07:38:02;;;;;;;1.50;0.75;;;;;;;19.36;71.13;102831.56;5040012;28;20493;-69
2022/07/17 07:40:28;;;;;;;1.73;0.98;;;;;;;19.35;70.04;102821.84;5043716;28;20115;-70
2022/07/17 07:42:53;;;;;;;3.40;0.40;;;;;;;19.56;69.90;102841.03;5036623;28;20120;-69
2022/07/17 07:45:19;;;;;;;2.85;0.80;;;;;;;19.76;69.69;102840.81;5042315;28;20029;-68
2022/07/17 07:47:46;;;;;;;0.57;0.30;;;;;;;19.87;69.07;102845.84;5039250;28;21439;-70
2022/07/17 07:50:12;;;;;;;2.67;0.60;;;;;;;20.45;70.22;102833.41;5042816;28;20022;-70
2022/07/17 07:52:38;;;;;;;3.95;0.70;;;;;;;21.83;66.14;102847.53;5034485;28;20051;-70
2022/07/17 07:55:04;;;;;;;2.08;0.40;;;;;;;22.99;61.58;102851.03;5032093;28;20029;-70
2022/07/17 07:57:30;;;;;;;2.22;0.35;;;;;;;23.65;58.84;102848.47;5033184;28;20033;-70
2022/07/17 07:59:55;;;;;;;1.00;0.47;;;;;;;24.39;57.08;102842.00;5034333;28;20046;-70
2022/07/17 08:02:20;;;;;;;3.85;0.73;;;;;;;25.07;55.63;102853.16;5036973;28;20021;-70
2022/07/17 08:04:46;;;;;;;1.17;0.75;;;;;;;25.84;53.67;102854.75;5044970;28;20021;-70
2022/07/17 08:07:11;;;;;;;3.20;0.80;;;;;;;25.85;53.15;102848.34;5038750;28;20036;-70
2022/07/17 08:09:36;;;;;;;2.65;0.60;;;;;;;26.40;52.57;102828.47;5035766;28;20079;-70
2022/07/17 08:12:02;;;;;;;2.35;0.40;;;;;;;27.37;50.49;102839.59;5037490;28;20021;-70
2022/07/17 08:14:27;;;;;;;0.90;0.50;;;;;;;27.77;49.40;102836.72;5040210;28;20035;-70
2022/07/17 08:16:53;;;;;;;1.42;0.80;;;;;;;28.20;48.78;102834.16;5037308;28;20033;-70
2022/07/17 08:19:18;;;;;;;0.80;0.40;;;;;;;28.88;47.74;102825.22;5039428;28;20455;-70
2022/07/17 08:21:43;;;;;;;0.22;0.20;;;;;;;29.41;46.95;102831.13;5040513;28;20078;-70
2022/07/17 08:24:09;;;;;;;2.30;0.30;;;;;;;29.06;45.75;102839.88;5036697;28;20033;-70
2022/07/17 08:26:34;;;;;;;1.65;0.50;;;;;;;28.79;47.88;102839.31;5039911;28;20108;-69
2022/07/17 08:28:59;;;;;;;1.60;0.90;;;;;;;29.38;45.13;102835.13;5040592;28;20092;-69
2022/07/17 08:31:25;;;;;;;0.20;0.20;;;;;;;29.72;46.26;102841.00;5035567;28;20163;-69
2022/07/17 08:33:50;;;;;;;0.77;0.25;;;;;;;29.22;47.46;102833.03;5036269;28;20021;-69
2022/07/17 08:36:16;;;;;;;1.85;0.40;;;;;;;30.32;45.82;102831.94;5033527;28;20038;-70
2022/07/17 08:38:42;;;;;;;1.33;0.73;;;;;;;30.21;44.20;102833.56;5038136;28;20037;-70
2022/07/17 08:41:09;;;;;;;2.08;0.30;;;;;;;28.36;46.00;102835.50;5034339;28;20048;-70
2022/07/17 08:43:35;;;;;;;1.33;0.40;;;;;;;26.86;48.83;102830.34;5035069;28;20037;-70
2022/07/17 08:46:02;;;;;;;0.95;0.40;;;;;;;28.31;48.08;102836.16;5038911;28;20033;-70
2022/07/17 08:48:27;;;;;;;3.47;0.45;;;;;;;29.25;46.56;102836.13;5040581;28;20343;-70
2022/07/17 08:50:55;;;;;;;1.63;0.30;;;;;;;28.69;44.70;102848.81;5039533;28;20560;-71
2022/07/17 08:53:21;;;;;;;2.97;0.43;;;;;;;27.62;47.87;102837.81;5037620;28;20025;-70
2022/07/17 08:55:47;;;;;;;4.00;0.75;;;;;;;29.42;46.02;102830.06;5041094;28;20036;-70
2022/07/17 08:58:18;;;;;;;2.40;0.52;;;;;;;29.98;44.50;102828.88;5035138;28;20037;-70
2022/07/17 09:00:45;;;;;;;0.75;0.32;;;;;;;30.47;43.88;102826.88;5038087;28;20069;-70
2022/07/17 09:03:10;;;;;;;1.95;0.38;;;;;;;30.03;43.96;102836.34;5034712;28;20079;-70
2022/07/17 09:05:39;;;;;;;0.85;0.25;;;;;;;29.00;46.64;102829.91;5033344;28;20440;-70
2022/07/17 09:08:07;;;;;;;1.83;0.50;;;;;;;27.73;48.35;102828.16;5031332;28;20549;-70
2022/07/17 09:10:38;;;;;;;0.73;0.20;;;;;;;28.97;48.45;102820.31;5034797;28;20132;-70
2022/07/17 09:13:36;;;;;;;1.17;0.40;;;;;;;31.35;43.53;102826.88;5035908;28;20033;-70
2022/07/17 09:16:12;;;;;;;1.77;0.38;;;;;;;31.28;41.74;102831.66;5013674;28;20054;-69
2022/07/17 09:18:53;;;;;;;3.35;0.50;;;;;;;29.46;44.64;102823.97;5012563;28;20038;-70
2022/07/17 09:21:27;;;;;;;1.73;0.40;;;;;;;31.80;43.39;102826.13;5010398;28;20060;-69
2022/07/17 09:24:03;;;;;;;0.93;0.40;;;;;;;32.83;42.35;102814.13;5011161;28;20121;-69
2022/07/17 09:26:30;;;;;;;3.95;0.60;;;;;;;33.93;39.52;102817.59;5014801;28;20037;-70
2022/07/17 09:28:56;;;;;;;2.92;0.52;;;;;;;33.14;39.41;102818.94;5012645;28;20049;-70
2022/07/17 09:31:29;;;;;;;1.27;0.50;;;;;;;31.06;42.50;102824.13;4985804;28;20466;-70
2022/07/17 09:33:55;;;;;;;0.73;0.40;;;;;;;31.45;42.99;102827.13;5014893;28;20399;-70
2022/07/17 09:36:20;;;;;;;2.42;0.65;;;;;;;31.42;41.71;102813.94;5013856;28;20036;-70
2022/07/17 09:38:49;;;;;;;1.85;0.40;;;;;;;31.99;42.04;102815.84;4996619;28;20411;-70
2022/07/17 09:41:16;;;;;;;1.80;0.50;;;;;;;33.24;39.54;102820.97;5010175;28;20048;-70
2022/07/17 09:43:52;;;;;;;1.77;0.30;;;;;;;34.04;38.75;102820.41;5015240;28;20105;-70
2022/07/17 09:46:30;;;;;;;2.38;0.47;;;;;;;34.54;38.29;102814.50;5015377;28;20095;-70
2022/07/17 09:49:03;;;;;;;1.73;0.77;;;;;;;34.98;37.49;102816.13;5020690;28;20300;-70
2022/07/17 09:51:34;;;;;;;1.08;0.40;;;;;;;33.95;37.17;102815.41;5031860;28;20489;-70
2022/07/17 09:54:02;;;;;;;3.00;1.00;;;;;;;32.01;39.87;102813.72;5041961;28;20026;-70
2022/07/17 09:56:30;;;;;;;2.20;0.50;;;;;;;30.58;42.19;102805.31;5044681;28;20103;-70
2022/07/17 09:59:05;;;;;;;1.27;0.80;;;;;;;29.70;42.54;102811.31;5041418;28;20021;-71
2022/07/17 10:01:32;;;;;;;0.77;0.50;;;;;;;31.74;43.12;102813.47;5039084;28;20024;-71
2022/07/17 10:03:58;;;;;;;1.75;0.50;;;;;;;33.18;39.90;102805.56;5038844;28;20487;-70
2022/07/17 10:06:25;;;;;;;1.80;0.60;;;;;;;34.40;39.50;102810.56;5040243;28;20179;-70
2022/07/17 10:08:51;;;;;;;2.33;0.50;;;;;;;35.49;37.46;102821.78;5036302;28;20052;-70
2022/07/17 10:11:20;;;;;;;4.07;0.52;;;;;;;35.83;36.83;102818.56;5044018;28;20025;-70
2022/07/17 10:13:46;;;;;;;1.33;0.60;;;;;;;36.22;36.06;102823.53;5038603;28;20036;-70
2022/07/17 10:16:15;;;;;;;1.58;0.50;;;;;;;36.72;33.53;102821.78;5037939;28;20074;-70
2022/07/17 10:18:44;;;;;;;3.13;0.43;;;;;;;34.67;35.77;102813.22;5043927;28;20029;-70
2022/07/17 10:21:09;;;;;;;1.77;0.50;;;;;;;33.15;39.29;102819.78;5042537;28;20025;-70
2022/07/17 10:23:35;;;;;;;1.90;0.33;;;;;;;34.71;38.18;102824.47;5042014;28;20044;-71
2022/07/17 10:26:01;;;;;;;1.88;0.50;;;;;;;34.86;36.56;102824.56;5042091;28;20358;-70
2022/07/17 10:28:47;;;;;;;2.10;0.40;;;;;;;33.22;37.76;102820.38;5036918;28;20063;-70
2022/07/17 10:31:27;;;;;;;1.48;0.50;;;;;;;33.97;38.84;102813.25;5040251;28;20152;-70
2022/07/17 10:34:06;;;;;;;0.85;0.47;;;;;;;35.60;37.77;102817.13;5039504;28;20029;-70
2022/07/17 10:36:36;;;;;;;1.27;0.43;;;;;;;36.38;35.13;102816.06;5041263;28;20116;-70
2022/07/17 10:39:11;;;;;;;2.00;0.57;;;;;;;36.35;37.03;102817.44;5039605;28;20517;-70
2022/07/17 10:41:37;;;;;;;2.55;0.57;;;;;;;36.53;34.58;102809.72;5041216;28;20029;-70
2022/07/17 10:44:02;;;;;;;1.63;0.70;;;;;;;35.54;36.05;102804.47;5040050;28;20124;-70
2022/07/17 10:46:28;;;;;;;1.38;0.50;;;;;;;36.16;36.78;102808.13;5036701;28;20025;-70
2022/07/17 10:48:55;;;;;;;3.50;0.65;;;;;;;36.77;34.71;102808.00;5044511;28;20033;-70
2022/07/17 10:51:23;;;;;;;0.98;0.40;;;;;;;36.92;35.16;102814.56;5038561;28;20083;-70
2022/07/17 10:53:49;;;;;;;2.83;0.47;;;;;;;36.05;34.92;102808.09;5041574;28;20025;-70
2022/07/17 10:56:16;;;;;;;1.77;0.38;;;;;;;35.29;35.77;102805.28;5037041;28;20543;-70
2022/07/17 10:58:42;;;;;;;0.70;0.40;;;;;;;34.47;38.21;102796.63;5042346;28;20033;-70
2022/07/17 11:01:13;;;;;;;1.92;0.52;;;;;;;36.23;37.47;102819.66;5039332;28;20061;-70
2022/07/17 11:03:42;;;;;;;0.88;0.30;;;;;;;37.14;36.44;102806.75;5041988;28;20057;-70
2022/07/17 11:06:17;;;;;;;3.83;0.32;;;;;;;37.86;33.93;102806.28;5040479;28;20029;-71
2022/07/17 11:08:45;;;;;;;1.13;0.40;;;;;;;37.96;33.81;102795.16;5034836;28;20048;-70
2022/07/17 11:11:11;;;;;;;1.30;0.95;;;;;;;38.06;33.87;102806.09;5044241;28;20025;-70
2022/07/17 11:13:37;;;;;;;0.65;0.30;;;;;;;37.79;34.12;102806.63;5040126;28;20017;-71
2022/07/17 11:16:03;;;;;;;0.95;0.40;;;;;;;36.13;32.92;102816.91;5041474;28;20078;-70
2022/07/17 11:18:28;;;;;;;0.95;0.40;;;;;;;34.34;37.04;102795.16;5038061;28;20057;-70
2022/07/17 11:20:57;;;;;;;1.23;0.30;;;;;;;35.09;35.27;102808.75;5034710;28;20107;-70